sensor_id;sensor_type;location;lat;lon;timestamp;temperature;humidity
22065;DHT22;11197;53.110;8.468;2023-04-15T00:00:06;7.40;99.90
22065;DHT22;11197;53.110;8.468;2023-04-15T00:02:38;7.40;99.90
22065;DHT22;11197;53.110;8.468;2023-04-15T00:05:05;7.40;99.90
22065;DHT22;11197;53.110;8.468;2023-04-15T00:07:30;7.50;99.90
22065;DHT22;11197;53.110;8.468;2023-04-15T00:09:58;7.40;99.90
22065;DHT22;11197;53.110;8.468;2023-04-15T00:12:24;7.40;99.90
22065;DHT22;11197;53.110;8.468;2023-04-15T00:14:51;7.40;99.90
22065;DHT22;11197;53.110;8.468;2023-04-15T00:17:16;7.40;99.90
22065;DHT22;11197;53.110;8.468;2023-04-15T00:19:42;7.40;99.90
22065;DHT22;11197;53.110;8.468;2023-04-15T00:22:12;7.30;99.90
22065;DHT22;11197;53.110;8.468;2023-04-15T00:24:38;7.30;99.90
22065;DHT22;11197;53.110;8.468;2023-04-15T00:27:04;7.30;99.90
22065;DHT22;11197;53.110;8.468;2023-04-15T00:29:30;7.30;99.90
22065;DHT22;11197;53.110;8.468;2023-04-15T00:31:56;7.30;99.90
22065;DHT22;11197;53.110;8.468;2023-04-15T00:34:23;7.30;99.90
22065;DHT22;11197;53.110;8.468;2023-04-15T00:36:49;7.30;99.90
22065;DHT22;11197;53.110;8.468;2023-04-15T00:39:16;7.30;99.90
22065;DHT22;11197;53.110;8.468;2023-04-15T00:41:43;7.30;99.90
22065;DHT22;11197;53.110;8.468;2023-04-15T00:44:08;7.30;99.90
22065;DHT22;11197;53.110;8.468;2023-04-15T00:46:36;7.30;99.90
22065;DHT22;11197;53.110;8.468;2023-04-15T00:49:03;7.30;99.90
22065;DHT22;11197;53.110;8.468;2023-04-15T00:51:30;7.30;99.90
22065;DHT22;11197;53.110;8.468;2023-04-15T00:53:59;7.30;99.90
22065;DHT22;11197;53.110;8.468;2023-04-15T00:56:26;7.30;99.90
22065;DHT22;11197;53.110;8.468;2023-04-15T00:58:53;7.30;99.90
22065;DHT22;11197;53.110;8.468;2023-04-15T01:01:23;7.30;99.90
22065;DHT22;11197;53.110;8.468;2023-04-15T01:03:50;7.30;99.90
22065;DHT22;11197;53.110;8.468;2023-04-15T01:06:17;7.30;99.90
22065;DHT22;11197;53.110;8.468;2023-04-15T01:08:43;7.30;99.90
22065;DHT22;11197;53.110;8.468;2023-04-15T01:11:13;7.30;99.90
22065;DHT22;11197;53.110;8.468;2023-04-15T01:13:40;7.30;99.90
22065;DHT22;11197;53.110;8.468;2023-04-15T01:16:07;7.30;99.90
22065;DHT22;11197;53.110;8.468;2023-04-15T01:18:34;7.20;99.90
22065;DHT22;11197;53.110;8.468;2023-04-15T01:21:01;7.30;99.90
22065;DHT22;11197;53.110;8.468;2023-04-15T01:23:29;7.20;99.90
22065;DHT22;11197;53.110;8.468;2023-04-15T01:25:56;7.30;99.90
22065;DHT22;11197;53.110;8.468;2023-04-15T01:28:23;7.30;99.90
22065;DHT22;11197;53.110;8.468;2023-04-15T01:30:48;7.30;99.90
22065;DHT22;11197;53.110;8.468;2023-04-15T01:33:14;7.30;99.90
22065;DHT22;11197;53.110;8.468;2023-04-15T01:35:40;7.30;99.90
22065;DHT22;11197;53.110;8.468;2023-04-15T01:38:09;7.30;99.90
22065;DHT22;11197;53.110;8.468;2023-04-15T01:40:36;7.30;99.90
22065;DHT22;11197;53.110;8.468;2023-04-15T01:43:03;7.30;99.90
22065;DHT22;11197;53.110;8.468;2023-04-15T01:45:29;7.30;99.90
22065;DHT22;11197;53.110;8.468;2023-04-15T01:47:55;7.30;99.90
22065;DHT22;11197;53.110;8.468;2023-04-15T01:50:21;7.30;99.90
22065;DHT22;11197;53.110;8.468;2023-04-15T01:52:47;7.30;99.90
22065;DHT22;11197;53.110;8.468;2023-04-15T01:55:13;7.30;99.90
22065;DHT22;11197;53.110;8.468;2023-04-15T01:57:39;7.30;99.90
22065;DHT22;11197;53.110;8.468;2023-04-15T02:00:06;7.30;99.90
22065;DHT22;11197;53.110;8.468;2023-04-15T02:02:38;7.30;99.90
22065;DHT22;11197;53.110;8.468;2023-04-15T02:05:05;7.30;99.90
22065;DHT22;11197;53.110;8.468;2023-04-15T02:07:30;7.30;99.90
22065;DHT22;11197;53.110;8.468;2023-04-15T02:09:57;7.30;99.90
22065;DHT22;11197;53.110;8.468;2023-04-15T02:12:23;7.30;99.90
22065;DHT22;11197;53.110;8.468;2023-04-15T02:14:50;7.30;99.90
22065;DHT22;11197;53.110;8.468;2023-04-15T02:17:16;7.30;99.90
22065;DHT22;11197;53.110;8.468;2023-04-15T02:19:42;7.30;99.90
22065;DHT22;11197;53.110;8.468;2023-04-15T02:22:08;7.30;99.90
22065;DHT22;11197;53.110;8.468;2023-04-15T02:24:34;7.20;99.90
22065;DHT22;11197;53.110;8.468;2023-04-15T02:27:01;7.30;99.90
22065;DHT22;11197;53.110;8.468;2023-04-15T02:29:28;7.30;99.90
22065;DHT22;11197;53.110;8.468;2023-04-15T02:31:53;7.20;99.90
22065;DHT22;11197;53.110;8.468;2023-04-15T02:34:20;7.20;99.90
22065;DHT22;11197;53.110;8.468;2023-04-15T02:36:46;7.20;99.90
22065;DHT22;11197;53.110;8.468;2023-04-15T02:39:14;7.20;99.90
22065;DHT22;11197;53.110;8.468;2023-04-15T02:41:43;7.20;99.90
22065;DHT22;11197;53.110;8.468;2023-04-15T02:44:12;7.30;99.90
22065;DHT22;11197;53.110;8.468;2023-04-15T02:46:38;7.20;99.90
22065;DHT22;11197;53.110;8.468;2023-04-15T02:49:05;7.20;99.90
22065;DHT22;11197;53.110;8.468;2023-04-15T02:51:34;7.20;99.90
22065;DHT22;11197;53.110;8.468;2023-04-15T02:54:00;7.20;99.90
22065;DHT22;11197;53.110;8.468;2023-04-15T02:56:26;7.20;99.90
22065;DHT22;11197;53.110;8.468;2023-04-15T02:58:52;7.30;99.90
22065;DHT22;11197;53.110;8.468;2023-04-15T03:01:21;7.20;99.90
22065;DHT22;11197;53.110;8.468;2023-04-15T03:03:47;7.30;99.90
22065;DHT22;11197;53.110;8.468;2023-04-15T03:06:12;7.30;99.90
22065;DHT22;11197;53.110;8.468;2023-04-15T03:08:44;7.30;99.90
22065;DHT22;11197;53.110;8.468;2023-04-15T03:11:13;7.30;99.90
22065;DHT22;11197;53.110;8.468;2023-04-15T03:13:39;7.30;99.90
22065;DHT22;11197;53.110;8.468;2023-04-15T03:16:13;7.30;99.90
22065;DHT22;11197;53.110;8.468;2023-04-15T03:18:40;7.30;99.90
22065;DHT22;11197;53.110;8.468;2023-04-15T03:21:06;7.30;99.90
22065;DHT22;11197;53.110;8.468;2023-04-15T03:23:35;7.30;99.90
22065;DHT22;11197;53.110;8.468;2023-04-15T03:26:02;7.30;99.90
22065;DHT22;11197;53.110;8.468;2023-04-15T03:28:29;7.30;99.90
22065;DHT22;11197;53.110;8.468;2023-04-15T03:30:56;7.30;99.90
22065;DHT22;11197;53.110;8.468;2023-04-15T03:33:22;7.30;99.90
22065;DHT22;11197;53.110;8.468;2023-04-15T03:35:49;7.30;99.90
22065;DHT22;11197;53.110;8.468;2023-04-15T03:38:15;7.30;99.90
22065;DHT22;11197;53.110;8.468;2023-04-15T03:40:42;7.30;99.90
22065;DHT22;11197;53.110;8.468;2023-04-15T03:43:08;7.30;99.90
22065;DHT22;11197;53.110;8.468;2023-04-15T03:45:34;7.30;99.90
22065;DHT22;11197;53.110;8.468;2023-04-15T03:48:00;7.30;99.90
22065;DHT22;11197;53.110;8.468;2023-04-15T03:50:25;7.30;99.90
22065;DHT22;11197;53.110;8.468;2023-04-15T03:52:52;7.30;99.90
22065;DHT22;11197;53.110;8.468;2023-04-15T03:55:18;7.30;99.90
22065;DHT22;11197;53.110;8.468;2023-04-15T03:57:44;7.30;99.90
22065;DHT22;11197;53.110;8.468;2023-04-15T04:00:19;7.30;99.90
22065;DHT22;11197;53.110;8.468;2023-04-15T04:02:52;7.30;99.90
22065;DHT22;11197;53.110;8.468;2023-04-15T04:05:18;7.30;99.90
22065;DHT22;11197;53.110;8.468;2023-04-15T04:07:44;7.30;99.90
22065;DHT22;11197;53.110;8.468;2023-04-15T04:10:10;7.30;99.90
22065;DHT22;11197;53.110;8.468;2023-04-15T04:12:36;7.30;99.90
22065;DHT22;11197;53.110;8.468;2023-04-15T04:15:02;7.30;99.90
22065;DHT22;11197;53.110;8.468;2023-04-15T04:17:28;7.30;99.90
22065;DHT22;11197;53.110;8.468;2023-04-15T04:19:54;7.40;99.90
22065;DHT22;11197;53.110;8.468;2023-04-15T04:22:23;7.40;99.90
22065;DHT22;11197;53.110;8.468;2023-04-15T04:24:49;7.40;99.90
22065;DHT22;11197;53.110;8.468;2023-04-15T04:27:15;7.30;99.90
22065;DHT22;11197;53.110;8.468;2023-04-15T04:29:41;7.40;99.90
22065;DHT22;11197;53.110;8.468;2023-04-15T04:32:07;7.40;99.90
22065;DHT22;11197;53.110;8.468;2023-04-15T04:34:33;7.40;99.90
22065;DHT22;11197;53.110;8.468;2023-04-15T04:36:58;7.40;99.90
22065;DHT22;11197;53.110;8.468;2023-04-15T04:39:24;7.40;99.90
22065;DHT22;11197;53.110;8.468;2023-04-15T04:41:50;7.40;99.90
22065;DHT22;11197;53.110;8.468;2023-04-15T04:44:17;7.40;99.90
22065;DHT22;11197;53.110;8.468;2023-04-15T04:46:43;7.40;99.90
22065;DHT22;11197;53.110;8.468;2023-04-15T04:49:08;7.40;99.90
22065;DHT22;11197;53.110;8.468;2023-04-15T04:51:34;7.40;99.90
22065;DHT22;11197;53.110;8.468;2023-04-15T04:54:00;7.50;99.90
22065;DHT22;11197;53.110;8.468;2023-04-15T04:56:26;7.50;99.90
22065;DHT22;11197;53.110;8.468;2023-04-15T04:58:52;7.50;99.90
22065;DHT22;11197;53.110;8.468;2023-04-15T05:01:18;7.50;99.90
22065;DHT22;11197;53.110;8.468;2023-04-15T05:03:44;7.50;99.90
22065;DHT22;11197;53.110;8.468;2023-04-15T05:06:10;7.60;99.90
22065;DHT22;11197;53.110;8.468;2023-04-15T05:08:35;7.50;99.90
22065;DHT22;11197;53.110;8.468;2023-04-15T05:11:02;7.50;99.90
22065;DHT22;11197;53.110;8.468;2023-04-15T05:13:31;7.50;99.90
22065;DHT22;11197;53.110;8.468;2023-04-15T05:15:57;7.60;99.90
22065;DHT22;11197;53.110;8.468;2023-04-15T05:18:23;7.60;99.90
22065;DHT22;11197;53.110;8.468;2023-04-15T05:20:48;7.60;99.90
22065;DHT22;11197;53.110;8.468;2023-04-15T05:23:15;7.60;99.90
22065;DHT22;11197;53.110;8.468;2023-04-15T05:25:41;7.60;99.90
22065;DHT22;11197;53.110;8.468;2023-04-15T05:28:06;7.70;99.90
22065;DHT22;11197;53.110;8.468;2023-04-15T05:30:32;7.70;99.90
22065;DHT22;11197;53.110;8.468;2023-04-15T05:32:58;7.70;99.90
22065;DHT22;11197;53.110;8.468;2023-04-15T05:35:24;7.70;99.90
22065;DHT22;11197;53.110;8.468;2023-04-15T05:37:50;7.70;99.90
22065;DHT22;11197;53.110;8.468;2023-04-15T05:40:15;7.70;99.90
22065;DHT22;11197;53.110;8.468;2023-04-15T05:42:41;7.80;99.90
22065;DHT22;11197;53.110;8.468;2023-04-15T05:45:07;7.80;99.90
22065;DHT22;11197;53.110;8.468;2023-04-15T05:47:37;7.80;99.90
22065;DHT22;11197;53.110;8.468;2023-04-15T05:50:03;7.80;99.90
22065;DHT22;11197;53.110;8.468;2023-04-15T05:52:30;7.80;99.90
22065;DHT22;11197;53.110;8.468;2023-04-15T05:54:56;7.90;99.90
22065;DHT22;11197;53.110;8.468;2023-04-15T05:57:22;7.90;99.90
22065;DHT22;11197;53.110;8.468;2023-04-15T05:59:48;7.90;99.90
22065;DHT22;11197;53.110;8.468;2023-04-15T06:02:16;7.90;99.90
22065;DHT22;11197;53.110;8.468;2023-04-15T06:04:42;7.90;99.90
22065;DHT22;11197;53.110;8.468;2023-04-15T06:07:08;7.90;99.90
22065;DHT22;11197;53.110;8.468;2023-04-15T06:09:34;7.90;99.90
22065;DHT22;11197;53.110;8.468;2023-04-15T06:12:00;8.00;99.90
22065;DHT22;11197;53.110;8.468;2023-04-15T06:14:26;8.00;99.90
22065;DHT22;11197;53.110;8.468;2023-04-15T06:16:52;7.90;99.90
22065;DHT22;11197;53.110;8.468;2023-04-15T06:19:18;8.00;99.90
22065;DHT22;11197;53.110;8.468;2023-04-15T06:21:45;8.00;99.90
22065;DHT22;11197;53.110;8.468;2023-04-15T06:24:11;8.00;99.90
22065;DHT22;11197;53.110;8.468;2023-04-15T06:26:37;8.00;99.90
22065;DHT22;11197;53.110;8.468;2023-04-15T06:29:03;8.00;99.90
22065;DHT22;11197;53.110;8.468;2023-04-15T06:31:29;8.00;99.90
22065;DHT22;11197;53.110;8.468;2023-04-15T06:33:55;8.00;99.90
22065;DHT22;11197;53.110;8.468;2023-04-15T06:36:21;8.00;99.90
22065;DHT22;11197;53.110;8.468;2023-04-15T06:38:47;8.10;99.90
22065;DHT22;11197;53.110;8.468;2023-04-15T06:41:14;8.10;99.90
22065;DHT22;11197;53.110;8.468;2023-04-15T06:43:41;8.10;99.90
22065;DHT22;11197;53.110;8.468;2023-04-15T06:46:08;8.10;99.90
22065;DHT22;11197;53.110;8.468;2023-04-15T06:48:35;8.10;99.90
22065;DHT22;11197;53.110;8.468;2023-04-15T06:51:01;8.10;99.90
22065;DHT22;11197;53.110;8.468;2023-04-15T06:53:28;8.20;99.90
22065;DHT22;11197;53.110;8.468;2023-04-15T06:55:54;8.20;99.90
22065;DHT22;11197;53.110;8.468;2023-04-15T06:58:20;8.20;99.90
22065;DHT22;11197;53.110;8.468;2023-04-15T07:00:46;8.20;99.90
22065;DHT22;11197;53.110;8.468;2023-04-15T07:03:13;8.20;99.90
22065;DHT22;11197;53.110;8.468;2023-04-15T07:05:40;8.20;99.90
22065;DHT22;11197;53.110;8.468;2023-04-15T07:08:06;8.20;99.90
22065;DHT22;11197;53.110;8.468;2023-04-15T07:10:33;8.20;99.90
22065;DHT22;11197;53.110;8.468;2023-04-15T07:13:00;8.20;99.90
22065;DHT22;11197;53.110;8.468;2023-04-15T07:15:27;8.20;99.90
22065;DHT22;11197;53.110;8.468;2023-04-15T07:17:53;8.20;99.90
22065;DHT22;11197;53.110;8.468;2023-04-15T07:20:20;8.30;99.90
22065;DHT22;11197;53.110;8.468;2023-04-15T07:22:47;8.30;99.90
22065;DHT22;11197;53.110;8.468;2023-04-15T07:25:13;8.30;99.90
22065;DHT22;11197;53.110;8.468;2023-04-15T07:27:39;8.30;99.90
22065;DHT22;11197;53.110;8.468;2023-04-15T07:30:06;8.30;99.90
22065;DHT22;11197;53.110;8.468;2023-04-15T07:32:33;8.40;99.90
22065;DHT22;11197;53.110;8.468;2023-04-15T07:34:59;8.40;99.90
22065;DHT22;11197;53.110;8.468;2023-04-15T07:37:26;8.40;99.90
22065;DHT22;11197;53.110;8.468;2023-04-15T07:39:53;8.40;99.90
22065;DHT22;11197;53.110;8.468;2023-04-15T07:42:18;8.40;99.90
22065;DHT22;11197;53.110;8.468;2023-04-15T07:44:44;8.50;99.90
22065;DHT22;11197;53.110;8.468;2023-04-15T07:47:10;8.50;99.90
22065;DHT22;11197;53.110;8.468;2023-04-15T07:49:36;8.50;99.90
22065;DHT22;11197;53.110;8.468;2023-04-15T07:52:03;8.50;99.90
22065;DHT22;11197;53.110;8.468;2023-04-15T07:54:28;8.50;99.90
22065;DHT22;11197;53.110;8.468;2023-04-15T07:56:54;8.50;99.90
22065;DHT22;11197;53.110;8.468;2023-04-15T07:59:21;8.50;99.90
22065;DHT22;11197;53.110;8.468;2023-04-15T08:01:47;8.60;99.90
22065;DHT22;11197;53.110;8.468;2023-04-15T08:04:13;8.60;99.90
22065;DHT22;11197;53.110;8.468;2023-04-15T08:06:39;8.60;99.90
22065;DHT22;11197;53.110;8.468;2023-04-15T08:09:06;8.60;99.90
22065;DHT22;11197;53.110;8.468;2023-04-15T08:11:32;8.70;99.90
22065;DHT22;11197;53.110;8.468;2023-04-15T08:13:58;8.70;99.90
22065;DHT22;11197;53.110;8.468;2023-04-15T08:16:25;8.70;99.90
22065;DHT22;11197;53.110;8.468;2023-04-15T08:18:53;8.80;99.90
22065;DHT22;11197;53.110;8.468;2023-04-15T08:21:20;8.80;99.90
22065;DHT22;11197;53.110;8.468;2023-04-15T08:23:47;8.80;99.90
22065;DHT22;11197;53.110;8.468;2023-04-15T08:26:15;8.80;99.90
22065;DHT22;11197;53.110;8.468;2023-04-15T08:28:42;8.80;99.90
22065;DHT22;11197;53.110;8.468;2023-04-15T08:31:08;9.00;99.90
22065;DHT22;11197;53.110;8.468;2023-04-15T08:33:34;9.30;99.90
22065;DHT22;11197;53.110;8.468;2023-04-15T08:36:00;9.40;99.90
22065;DHT22;11197;53.110;8.468;2023-04-15T08:38:26;9.40;99.90
22065;DHT22;11197;53.110;8.468;2023-04-15T08:40:52;9.30;99.90
22065;DHT22;11197;53.110;8.468;2023-04-15T08:43:23;9.30;99.90
22065;DHT22;11197;53.110;8.468;2023-04-15T08:45:52;9.20;99.90
22065;DHT22;11197;53.110;8.468;2023-04-15T08:48:18;9.40;99.90
22065;DHT22;11197;53.110;8.468;2023-04-15T08:50:45;9.60;99.90
22065;DHT22;11197;53.110;8.468;2023-04-15T08:53:12;9.70;99.90
22065;DHT22;11197;53.110;8.468;2023-04-15T08:55:50;9.60;99.90
22065;DHT22;11197;53.110;8.468;2023-04-15T08:58:17;9.50;99.90
22065;DHT22;11197;53.110;8.468;2023-04-15T09:00:43;9.40;99.90
22065;DHT22;11197;53.110;8.468;2023-04-15T09:03:10;9.30;99.90
22065;DHT22;11197;53.110;8.468;2023-04-15T09:05:36;9.30;99.90
22065;DHT22;11197;53.110;8.468;2023-04-15T09:08:03;9.20;99.90
22065;DHT22;11197;53.110;8.468;2023-04-15T09:10:30;9.20;99.90
22065;DHT22;11197;53.110;8.468;2023-04-15T09:12:56;9.20;99.90
22065;DHT22;11197;53.110;8.468;2023-04-15T09:15:25;9.20;99.90
22065;DHT22;11197;53.110;8.468;2023-04-15T09:17:55;9.20;99.90
22065;DHT22;11197;53.110;8.468;2023-04-15T09:20:22;9.20;99.90
22065;DHT22;11197;53.110;8.468;2023-04-15T09:22:49;9.20;99.90
22065;DHT22;11197;53.110;8.468;2023-04-15T09:27:52;9.20;99.90
22065;DHT22;11197;53.110;8.468;2023-04-15T09:30:18;9.20;99.90
22065;DHT22;11197;53.110;8.468;2023-04-15T09:32:56;9.10;99.90
22065;DHT22;11197;53.110;8.468;2023-04-15T09:35:23;9.10;99.90
22065;DHT22;11197;53.110;8.468;2023-04-15T09:37:50;9.20;99.90
22065;DHT22;11197;53.110;8.468;2023-04-15T09:40:37;9.20;99.90
22065;DHT22;11197;53.110;8.468;2023-04-15T09:43:07;9.20;99.90
22065;DHT22;11197;53.110;8.468;2023-04-15T09:45:34;9.20;99.90
22065;DHT22;11197;53.110;8.468;2023-04-15T09:48:23;9.20;99.90
22065;DHT22;11197;53.110;8.468;2023-04-15T09:50:52;9.20;99.90
22065;DHT22;11197;53.110;8.468;2023-04-15T09:53:23;9.20;99.90
22065;DHT22;11197;53.110;8.468;2023-04-15T09:55:55;9.20;99.90
22065;DHT22;11197;53.110;8.468;2023-04-15T09:58:29;9.30;99.90
22065;DHT22;11197;53.110;8.468;2023-04-15T10:00:57;9.30;99.90
22065;DHT22;11197;53.110;8.468;2023-04-15T10:03:25;9.30;99.90
22065;DHT22;11197;53.110;8.468;2023-04-15T10:05:54;9.30;99.90
22065;DHT22;11197;53.110;8.468;2023-04-15T10:08:22;9.30;99.90
22065;DHT22;11197;53.110;8.468;2023-04-15T10:10:49;9.30;99.90
22065;DHT22;11197;53.110;8.468;2023-04-15T10:13:18;9.30;99.90
22065;DHT22;11197;53.110;8.468;2023-04-15T10:16:31;9.30;99.90
22065;DHT22;11197;53.110;8.468;2023-04-15T10:18:46;9.30;99.90
22065;DHT22;11197;53.110;8.468;2023-04-15T10:21:13;9.30;99.90
22065;DHT22;11197;53.110;8.468;2023-04-15T10:23:44;9.30;99.90
22065;DHT22;11197;53.110;8.468;2023-04-15T10:26:12;9.30;99.90
22065;DHT22;11197;53.110;8.468;2023-04-15T10:28:40;9.30;99.90
22065;DHT22;11197;53.110;8.468;2023-04-15T10:31:06;9.30;99.90
22065;DHT22;11197;53.110;8.468;2023-04-15T10:33:34;9.40;99.90
22065;DHT22;11197;53.110;8.468;2023-04-15T10:36:01;9.40;99.90
22065;DHT22;11197;53.110;8.468;2023-04-15T10:38:37;9.30;99.90
22065;DHT22;11197;53.110;8.468;2023-04-15T10:46:36;9.40;99.90
22065;DHT22;11197;53.110;8.468;2023-04-15T10:49:09;9.40;99.90
22065;DHT22;11197;53.110;8.468;2023-04-15T10:51:43;9.40;99.90
22065;DHT22;11197;53.110;8.468;2023-04-15T10:56:47;9.40;99.90
22065;DHT22;11197;53.110;8.468;2023-04-15T10:59:15;9.40;99.90
22065;DHT22;11197;53.110;8.468;2023-04-15T11:02:01;9.40;99.90
22065;DHT22;11197;53.110;8.468;2023-04-15T11:04:56;9.40;99.90
22065;DHT22;11197;53.110;8.468;2023-04-15T11:07:40;9.40;99.90
22065;DHT22;11197;53.110;8.468;2023-04-15T11:12:56;9.40;99.90
22065;DHT22;11197;53.110;8.468;2023-04-15T11:18:38;9.60;99.90
22065;DHT22;11197;53.110;8.468;2023-04-15T11:25:55;9.70;99.90
22065;DHT22;11197;53.110;8.468;2023-04-15T11:28:29;9.80;99.90
22065;DHT22;11197;53.110;8.468;2023-04-15T11:30:56;9.70;99.90
22065;DHT22;11197;53.110;8.468;2023-04-15T11:33:23;9.70;99.90
22065;DHT22;11197;53.110;8.468;2023-04-15T11:35:51;9.70;99.90
22065;DHT22;11197;53.110;8.468;2023-04-15T11:38:18;9.70;99.90
22065;DHT22;11197;53.110;8.468;2023-04-15T11:40:44;9.70;99.90
22065;DHT22;11197;53.110;8.468;2023-04-15T11:43:15;9.70;99.90
22065;DHT22;11197;53.110;8.468;2023-04-15T11:45:55;9.70;99.90
22065;DHT22;11197;53.110;8.468;2023-04-15T11:48:24;9.70;99.90
22065;DHT22;11197;53.110;8.468;2023-04-15T11:53:20;9.70;99.90
22065;DHT22;11197;53.110;8.468;2023-04-15T11:55:48;9.70;99.90
22065;DHT22;11197;53.110;8.468;2023-04-15T11:58:17;9.70;99.90
22065;DHT22;11197;53.110;8.468;2023-04-15T12:06:30;9.80;99.90
22065;DHT22;11197;53.110;8.468;2023-04-15T12:09:11;9.80;99.90
22065;DHT22;11197;53.110;8.468;2023-04-15T12:16:46;9.70;99.90
22065;DHT22;11197;53.110;8.468;2023-04-15T12:19:25;9.80;99.90
22065;DHT22;11197;53.110;8.468;2023-04-15T12:21:56;9.80;99.90
22065;DHT22;11197;53.110;8.468;2023-04-15T12:24:23;9.70;99.90
22065;DHT22;11197;53.110;8.468;2023-04-15T12:26:56;9.70;99.90
22065;DHT22;11197;53.110;8.468;2023-04-15T12:29:27;9.70;99.90
22065;DHT22;11197;53.110;8.468;2023-04-15T12:31:57;9.70;99.90
22065;DHT22;11197;53.110;8.468;2023-04-15T12:34:32;9.70;99.90
22065;DHT22;11197;53.110;8.468;2023-04-15T12:37:00;9.70;99.90
22065;DHT22;11197;53.110;8.468;2023-04-15T12:39:29;9.70;99.90
22065;DHT22;11197;53.110;8.468;2023-04-15T12:41:55;9.70;99.90
22065;DHT22;11197;53.110;8.468;2023-04-15T12:44:22;9.70;99.90
22065;DHT22;11197;53.110;8.468;2023-04-15T12:46:49;9.70;99.90
22065;DHT22;11197;53.110;8.468;2023-04-15T12:49:15;9.70;99.90
22065;DHT22;11197;53.110;8.468;2023-04-15T12:51:44;9.70;99.90
22065;DHT22;11197;53.110;8.468;2023-04-15T12:54:10;9.70;99.90
22065;DHT22;11197;53.110;8.468;2023-04-15T12:56:36;9.70;99.90
22065;DHT22;11197;53.110;8.468;2023-04-15T12:59:02;9.70;99.90
22065;DHT22;11197;53.110;8.468;2023-04-15T13:01:27;9.70;99.90
22065;DHT22;11197;53.110;8.468;2023-04-15T13:03:53;9.70;99.90
22065;DHT22;11197;53.110;8.468;2023-04-15T13:06:20;9.80;99.90
22065;DHT22;11197;53.110;8.468;2023-04-15T13:08:46;9.70;99.90
22065;DHT22;11197;53.110;8.468;2023-04-15T13:11:11;9.80;99.90
22065;DHT22;11197;53.110;8.468;2023-04-15T13:13:37;9.80;99.90
22065;DHT22;11197;53.110;8.468;2023-04-15T13:16:03;9.80;99.90
22065;DHT22;11197;53.110;8.468;2023-04-15T13:18:29;9.80;99.90
22065;DHT22;11197;53.110;8.468;2023-04-15T13:20:56;9.90;99.90
22065;DHT22;11197;53.110;8.468;2023-04-15T13:23:21;9.80;99.90
22065;DHT22;11197;53.110;8.468;2023-04-15T13:25:48;9.90;99.90
22065;DHT22;11197;53.110;8.468;2023-04-15T13:28:14;9.90;99.90
22065;DHT22;11197;53.110;8.468;2023-04-15T13:30:40;9.90;99.90
22065;DHT22;11197;53.110;8.468;2023-04-15T13:33:07;9.90;99.90
22065;DHT22;11197;53.110;8.468;2023-04-15T13:35:33;10.00;99.90
22065;DHT22;11197;53.110;8.468;2023-04-15T13:37:59;9.90;99.90
22065;DHT22;11197;53.110;8.468;2023-04-15T13:40:25;10.00;99.90
22065;DHT22;11197;53.110;8.468;2023-04-15T13:42:51;9.90;99.90
22065;DHT22;11197;53.110;8.468;2023-04-15T13:45:18;10.00;99.90
22065;DHT22;11197;53.110;8.468;2023-04-15T13:47:44;10.00;99.90
22065;DHT22;11197;53.110;8.468;2023-04-15T13:50:10;10.00;99.90
22065;DHT22;11197;53.110;8.468;2023-04-15T13:52:35;10.10;99.90
22065;DHT22;11197;53.110;8.468;2023-04-15T13:55:03;10.10;99.90
22065;DHT22;11197;53.110;8.468;2023-04-15T13:57:29;10.10;99.90
22065;DHT22;11197;53.110;8.468;2023-04-15T13:59:56;10.20;99.90
22065;DHT22;11197;53.110;8.468;2023-04-15T14:02:22;10.30;99.90
22065;DHT22;11197;53.110;8.468;2023-04-15T14:04:48;10.40;99.90
22065;DHT22;11197;53.110;8.468;2023-04-15T14:07:14;10.50;99.90
22065;DHT22;11197;53.110;8.468;2023-04-15T14:09:40;10.50;99.90
22065;DHT22;11197;53.110;8.468;2023-04-15T14:12:06;10.60;99.90
22065;DHT22;11197;53.110;8.468;2023-04-15T14:14:32;10.70;99.90
22065;DHT22;11197;53.110;8.468;2023-04-15T14:16:58;10.80;99.90
22065;DHT22;11197;53.110;8.468;2023-04-15T14:19:24;10.80;99.90
22065;DHT22;11197;53.110;8.468;2023-04-15T14:21:50;10.80;99.90
22065;DHT22;11197;53.110;8.468;2023-04-15T14:24:16;10.80;99.90
22065;DHT22;11197;53.110;8.468;2023-04-15T14:26:42;10.80;99.90
22065;DHT22;11197;53.110;8.468;2023-04-15T14:29:09;10.80;99.90
22065;DHT22;11197;53.110;8.468;2023-04-15T14:31:36;10.80;99.90
22065;DHT22;11197;53.110;8.468;2023-04-15T14:34:02;10.80;99.90
22065;DHT22;11197;53.110;8.468;2023-04-15T14:36:27;10.90;99.90
22065;DHT22;11197;53.110;8.468;2023-04-15T14:38:53;10.90;99.90
22065;DHT22;11197;53.110;8.468;2023-04-15T14:41:19;10.90;99.90
22065;DHT22;11197;53.110;8.468;2023-04-15T14:43:45;11.00;99.90
22065;DHT22;11197;53.110;8.468;2023-04-15T14:46:11;11.00;99.90
22065;DHT22;11197;53.110;8.468;2023-04-15T14:48:39;11.10;99.90
22065;DHT22;11197;53.110;8.468;2023-04-15T14:51:05;11.10;99.90
22065;DHT22;11197;53.110;8.468;2023-04-15T14:53:31;11.20;99.90
22065;DHT22;11197;53.110;8.468;2023-04-15T14:55:57;11.20;99.90
22065;DHT22;11197;53.110;8.468;2023-04-15T14:58:25;11.30;99.90
22065;DHT22;11197;53.110;8.468;2023-04-15T15:00:52;11.30;99.90
22065;DHT22;11197;53.110;8.468;2023-04-15T15:03:17;11.30;99.90
22065;DHT22;11197;53.110;8.468;2023-04-15T15:05:45;11.40;99.90
22065;DHT22;11197;53.110;8.468;2023-04-15T15:08:11;11.40;99.90
22065;DHT22;11197;53.110;8.468;2023-04-15T15:10:38;11.40;99.90
22065;DHT22;11197;53.110;8.468;2023-04-15T15:13:06;11.40;99.90
22065;DHT22;11197;53.110;8.468;2023-04-15T15:15:33;11.40;99.90
22065;DHT22;11197;53.110;8.468;2023-04-15T15:17:59;11.50;99.90
22065;DHT22;11197;53.110;8.468;2023-04-15T15:20:26;11.50;99.90
22065;DHT22;11197;53.110;8.468;2023-04-15T15:22:52;11.60;99.90
22065;DHT22;11197;53.110;8.468;2023-04-15T15:25:18;11.60;99.90
22065;DHT22;11197;53.110;8.468;2023-04-15T15:27:44;11.70;99.90
22065;DHT22;11197;53.110;8.468;2023-04-15T15:30:10;11.70;99.90
22065;DHT22;11197;53.110;8.468;2023-04-15T15:32:40;11.80;99.90
22065;DHT22;11197;53.110;8.468;2023-04-15T15:35:07;11.80;99.90
22065;DHT22;11197;53.110;8.468;2023-04-15T15:37:34;11.80;99.90
22065;DHT22;11197;53.110;8.468;2023-04-15T15:40:00;11.80;99.90
22065;DHT22;11197;53.110;8.468;2023-04-15T15:42:30;11.80;99.90
22065;DHT22;11197;53.110;8.468;2023-04-15T15:44:56;11.90;99.90
22065;DHT22;11197;53.110;8.468;2023-04-15T15:47:22;11.90;99.90
22065;DHT22;11197;53.110;8.468;2023-04-15T15:49:48;11.90;99.90
22065;DHT22;11197;53.110;8.468;2023-04-15T15:52:14;11.90;99.90
22065;DHT22;11197;53.110;8.468;2023-04-15T15:54:40;11.90;99.90
22065;DHT22;11197;53.110;8.468;2023-04-15T15:57:06;12.00;99.90
22065;DHT22;11197;53.110;8.468;2023-04-15T15:59:32;12.00;99.90
22065;DHT22;11197;53.110;8.468;2023-04-15T16:01:59;12.00;99.90
22065;DHT22;11197;53.110;8.468;2023-04-15T16:04:25;12.00;99.90
22065;DHT22;11197;53.110;8.468;2023-04-15T16:06:51;12.00;99.90
22065;DHT22;11197;53.110;8.468;2023-04-15T16:09:17;12.00;99.90
22065;DHT22;11197;53.110;8.468;2023-04-15T16:11:43;12.00;99.90
22065;DHT22;11197;53.110;8.468;2023-04-15T16:14:09;11.90;99.90
22065;DHT22;11197;53.110;8.468;2023-04-15T16:16:37;11.90;99.90